Nearby METAR Reports

 

KISP - Islip, New York, USA
Distance from station: SW 4mi, 6km
Updated: Mon, 04/22/2019 7:56 pm EDT
Light rain, Overcast
Light rain, Overcast
 Wind from N
Wind: N 15 mph , 24 km/h, Gust: 23 mph , 37 km/h
Temperature: 55°F , 13°C
Dew Point: 54°F , 12°C
Humidity: 94%
Barometer: 29.96 inHg , 1014.6 hPa
Summary: Light rain
Clouds: Overcast
Visibility: 10 miles , 16 km
Cloud details: Few Clouds 1200 ft
Partly cloudy 5500 ft
Overcast 10000 ft
2019/04/22 23:56 KISP 222356Z 01013G20KT 10SM -RA FEW012 SCT055 OVC100 13/12 A2996 RMK AO2 SLP143 P0000 60077 T01330117 10150 20128 53004
KHWV - Shirley, New York, USA
Distance from station: E 10mi, 16km
Updated: Mon, 04/22/2019 7:56 pm EDT
Light rain, Overcast
Light rain, Overcast
 Wind from N
Wind: N 15 mph , 24 km/h, Gust: 21 mph , 33 km/h
Temperature: 54°F , 12°C
Dew Point: 52°F , 11°C
Humidity: 94%
Barometer: 29.96 inHg , 1014.6 hPa
Summary: Light rain
Clouds: Overcast
Visibility: 10 miles , 16 km
Cloud details: Partly cloudy 7000 ft
Mostly cloudy 8500 ft
Overcast 11000 ft
2019/04/22 23:56 KHWV 222356Z AUTO 36013G18KT 10SM -RA SCT070 BKN085 OVC110 12/11 A2996 RMK AO2 SLP144 P0001 60093 T01220106 10150 20122 53004
 
KFRG - Farmingdale, New York, USA
Distance from station: WSW 20mi, 33km
Updated: Mon, 04/22/2019 7:53 pm EDT
Mostly cloudy
Mostly cloudy
 Wind from N
Wind: N 13 mph , 20 km/h
Temperature: 55°F , 13°C
Dew Point: 54°F , 12°C
Humidity: 94%
Barometer: 29.97 inHg , 1014.9 hPa
Clouds: Mostly cloudy
Visibility: 10 miles , 16 km
Cloud details: Mostly cloudy 11000 ft
2019/04/22 23:53 KFRG 222353Z 01011KT 10SM BKN110 13/12 A2997 RMK AO2 RAE27 SLP148 P0000 6//// T01330117 10144 20128 55001
KBDR - Bridgeport, Connecticut, USA
Distance from station: N 23mi, 37km
Updated: Mon, 04/22/2019 7:52 pm EDT
Light rain, Overcast
Light rain, Overcast
 Wind from N
Wind: N 13 mph , 20 km/h
Temperature: 57°F , 14°C
Dew Point: 54°F , 12°C
Humidity: 88%
Barometer: 29.97 inHg , 1014.9 hPa
Summary: Light rain
Clouds: Overcast
Visibility: 10 miles , 16 km
Cloud details: Overcast 8500 ft
2019/04/22 23:52 KBDR 222352Z 01011KT 10SM -RA OVC085 14/12 A2997 RMK AO2 SLP148 P0005 60059 T01390117 10167 20122 58004 $
 
KFOK - Westhampton Beac, New York, USA
Distance from station: E 23mi, 37km
Updated: Mon, 04/22/2019 7:53 pm EDT
Overcast
Overcast
 Wind from N
Wind: N 14 mph , 22 km/h
Temperature: 55°F , 13°C
Dew Point: 52°F , 11°C
Humidity: 88%
Barometer: 29.95 inHg , 1014.2 hPa
Clouds: Overcast
Visibility: 10 miles , 16 km
Cloud details: Mostly cloudy 2300 ft
Mostly cloudy 8000 ft
Overcast 10000 ft
2019/04/22 23:53 KFOK 222353Z 36012KT 10SM BKN023 BKN080 OVC100 13/11 A2995 RMK AO2 RAB39E49 SLP140 P0000 60110 T01280106 10144 20111 50005
KHVN - New Haven/Tweed, Connecticut, USA
Distance from station: NNE 31mi, 50km
Updated: Mon, 04/22/2019 8:00 pm EDT
Light rain, Overcast
Light rain, Overcast
 Wind from N
Wind: N 10 mph , 17 km/h
Temperature: 57°F , 14°C
Dew Point: 54°F , 12°C
Humidity: 88%
Barometer: 29.96 inHg , 1014.6 hPa
Summary: Light rain
Clouds: Overcast
Visibility: 9 miles , 14 km
Cloud details: Overcast 7500 ft
2019/04/23 00:00 KHVN 230000Z 35009KT 9SM -RA OVC075 14/12 A2996 RMK AO2 P0001 T01390122
 
KHPN - White Plains, New York, USA
Distance from station: WNW 37mi, 60km
Updated: Mon, 04/22/2019 7:56 pm EDT
Mostly cloudy
Mostly cloudy
 Wind from NNW
Wind: NNW 8 mph , 13 km/h
Temperature: 55°F , 13°C
Dew Point: 54°F , 12°C
Humidity: 94%
Barometer: 29.99 inHg , 1015.6 hPa
Clouds: Mostly cloudy
Visibility: 10 miles , 16 km
Cloud details: Partly cloudy 7000 ft
Mostly cloudy 10000 ft
2019/04/22 23:56 KHPN 222356Z 34007KT 10SM SCT070 BKN100 13/12 A2999 RMK AO2 RAE56 SLP156 P0004 60017 T01280117 10150 20128 50003
KJFK - Nyc/Jfk Arpt, New York, USA
Distance from station: WSW 40mi, 64km
Updated: Mon, 04/22/2019 7:51 pm EDT
Light rain, Mist, Overcast
Light rain, Mist, Overcast
 Wind from NNW
Wind: NNW 15 mph , 24 km/h
Temperature: 57°F , 14°C
Dew Point: 55°F , 13°C
Humidity: 94%
Barometer: 29.99 inHg , 1015.6 hPa
Summary: Light rain, Mist
Clouds: Overcast
Visibility: 5 miles , 8 km
Cloud details: Partly cloudy 4100 ft
Mostly cloudy 5500 ft
Overcast 7000 ft
2019/04/22 23:51 KJFK 222351Z 34013KT 5SM -RA BR SCT041 BKN055 OVC070 14/13 A2999 RMK AO2 SLP155 P0002 60033 T01390128 10156 20133 51005
 
KDXR - Danbury, Connecticut, USA
Distance from station: NNW 42mi, 68km
Updated: Mon, 04/22/2019 7:53 pm EDT
Light rain, Overcast
Light rain, Overcast
 Wind from NNE
Wind: NNE 3 mph , 6 km/h
Temperature: 55°F , 13°C
Dew Point: 54°F , 12°C
Humidity: 94%
Barometer: 30.01 inHg , 1016.3 hPa
Summary: Light rain
Clouds: Overcast
Visibility: 10 miles , 16 km
Cloud details: Few Clouds 900 ft
Mostly cloudy 4300 ft
Overcast 9000 ft
2019/04/22 23:53 KDXR 222353Z 03003KT 10SM -RA FEW009 BKN043 OVC090 13/12 A3001 RMK AO2 SLP162 P0005 60031 T01280117 10183 20128 50008
KHTO - East Hampton, New York, USA
Distance from station: E 43mi, 69km
Updated: Mon, 04/22/2019 7:55 pm EDT
Overcast
Overcast
 Wind from N
Wind: N 8 mph , 13 km/h
Temperature: 54°F , 12°C
Dew Point: 52°F , 11°C
Humidity: 94%
Barometer: 29.93 inHg , 1013.5 hPa
Clouds: Overcast
Visibility: 10 miles , 16 km
Cloud details: Overcast 1500 ft
2019/04/22 23:55 KHTO 222355Z AUTO 36007KT 10SM OVC015 12/11 A2993 RMK AO2 60092 T01200109 10146 20102
 
KOXC - Oxford/Waterbury, Connecticut, USA
Distance from station: N 43mi, 70km
Updated: Mon, 04/22/2019 7:51 pm EDT
Light rain, Overcast
Light rain, Overcast
 Wind from NNE
Wind: NNE 14 mph , 22 km/h
Temperature: 54°F , 12°C
Dew Point: 52°F , 11°C
Humidity: 94%
Barometer: 30.00 inHg , 1015.9 hPa
Summary: Light rain
Clouds: Overcast
Visibility: 8 miles , 13 km
Cloud details: Mostly cloudy 6500 ft
Overcast 8000 ft
2019/04/22 23:51 KOXC 222351Z 02012KT 8SM -RA BKN065 OVC080 12/11 A3000 RMK AO2 SLP171 P0009 60047 T01220111 10183 20117 50000
KLGA - Nyc/La Guardia, New York, USA
Distance from station: W 44mi, 70km
Updated: Mon, 04/22/2019 7:51 pm EDT
Mostly cloudy
Mostly cloudy
 Wind from NNE
Wind: NNE 6 mph , 9 km/h
Temperature: 55°F , 13°C
Dew Point: 54°F , 12°C
Humidity: 94%
Barometer: 29.99 inHg , 1015.6 hPa
Clouds: Mostly cloudy
Visibility: 7 miles , 11 km
Cloud details: Few Clouds 1400 ft
Mostly cloudy 3100 ft
Mostly cloudy 6000 ft
2019/04/22 23:51 KLGA 222351Z 02005KT 7SM FEW014 BKN031 BKN060 13/12 A2999 RMK AO2 RAEMM SLP155 P0002 60024 T01330117 10150 20128 50007 $
 
KSNC - Chester, Connecticut, USA
Distance from station: NE 47mi, 76km
Updated: Mon, 04/22/2019 7:55 pm EDT
Light rain, Partly cloudy
Light rain, Partly cloudy
 Wind from N
Wind: N 12 mph , 19 km/h, Gust: 23 mph , 37 km/h
Temperature: 55°F , 13°C
Dew Point: 54°F , 12°C
Humidity: 94%
Barometer: 29.96 inHg , 1014.6 hPa
Summary: Light rain
Clouds: Partly cloudy
Visibility: 9 miles , 14 km
Cloud details: Partly cloudy 7000 ft
2019/04/22 23:55 KSNC 222355Z AUTO 36010G20KT 9SM -RA SCT070 13/12 A2996 RMK AO2
KMMK - Meriden, Connecticut, USA
Distance from station: NNE 48mi, 77km
Updated: Mon, 04/22/2019 7:53 pm EDT
Light rain, Overcast
Light rain, Overcast
 Wind from N
Wind: N 6 mph , 9 km/h
Temperature: 55°F , 13°C
Dew Point: 52°F , 11°C
Humidity: 88%
Barometer: 29.99 inHg , 1015.6 hPa
Summary: Light rain
Clouds: Overcast
Visibility: 10 miles , 16 km
Cloud details: Partly cloudy 4700 ft
Mostly cloudy 5500 ft
Overcast 7000 ft
2019/04/22 23:53 KMMK 222353Z AUTO 01005KT 10SM -RA SCT047 BKN055 OVC070 13/11 A2999 RMK AO2 SLP154 P0010 60044 T01280111 10172 20128 58002
 
KNYC - Nyc/Central Park, New York, USA
Distance from station: W 48mi, 77km
Updated: Mon, 04/22/2019 7:51 pm EDT
Light rain, Overcast
Light rain, Overcast
 Wind from NE
Wind: NE 5 mph , 7 km/h
Barometer: 30.02 inHg , 1016.6 hPa
Summary: Light rain
Clouds: Overcast
Visibility: 3 miles , 5 km
Cloud details: Partly cloudy 3000 ft
Overcast 4300 ft
2019/04/22 23:51 KNYC 222351Z AUTO 04004KT 3SM -RA SCT030 OVC043 A3002 14/14 RMK AO2 SLPNO P0001 T01440139 $